createdAt,value
2022-09-07T00:02:09.776Z,17.60
2022-09-07T00:07:11.628Z,17.60
2022-09-07T00:12:13.434Z,17.60
2022-09-07T00:17:15.248Z,17.60
2022-09-07T00:22:17.036Z,17.50
2022-09-07T00:27:18.812Z,17.50
2022-09-07T00:32:20.632Z,17.50
2022-09-07T00:37:22.434Z,17.30
2022-09-07T00:42:24.260Z,17.30
2022-09-07T00:48:00.330Z,17.20
2022-09-07T00:53:23.385Z,17.00
2022-09-07T00:58:25.681Z,17.00
2022-09-07T01:03:32.296Z,16.90
2022-09-07T01:08:35.948Z,16.80
2022-09-07T01:13:41.031Z,16.70
2022-09-07T01:19:28.929Z,16.70
2022-09-07T01:24:42.809Z,16.60
2022-09-07T01:30:03.318Z,16.60
2022-09-07T01:35:11.741Z,16.60
2022-09-07T01:40:32.741Z,16.50
2022-09-07T01:45:39.401Z,16.40
2022-09-07T01:50:52.582Z,16.30
2022-09-07T01:56:01.806Z,16.30
2022-09-07T02:01:12.614Z,16.10
2022-09-07T02:06:25.336Z,16.10
2022-09-07T02:11:40.595Z,16.10
2022-09-07T02:16:55.336Z,16.00
2022-09-07T02:22:02.808Z,16.00
2022-09-07T02:27:10.653Z,15.90
2022-09-07T02:32:12.478Z,15.90
2022-09-07T02:37:16.153Z,15.80
2022-09-07T02:42:17.952Z,15.70
2022-09-07T02:47:49.656Z,15.70
2022-09-07T02:53:19.283Z,15.60
2022-09-07T02:59:06.844Z,15.60
2022-09-07T03:04:30.215Z,15.50
2022-09-07T03:09:40.962Z,15.50
2022-09-07T03:14:43.919Z,15.50
2022-09-07T03:19:45.838Z,15.40
2022-09-07T03:24:47.644Z,15.40
2022-09-07T03:29:50.805Z,15.40
2022-09-07T03:34:52.593Z,15.40
2022-09-07T03:39:54.551Z,15.30
2022-09-07T03:44:56.408Z,15.30
2022-09-07T03:49:58.184Z,15.30
2022-09-07T03:55:00.011Z,15.30
2022-09-07T04:00:03.573Z,15.20
2022-09-07T04:05:25.421Z,15.20
2022-09-07T04:10:27.746Z,15.10
2022-09-07T04:15:29.530Z,15.00
2022-09-07T04:20:31.385Z,15.00
2022-09-07T04:25:34.811Z,15.00
2022-09-07T04:30:36.622Z,14.90
2022-09-07T04:35:39.832Z,14.90
2022-09-07T04:40:42.090Z,14.90
2022-09-07T04:45:43.898Z,14.80
2022-09-07T04:50:45.717Z,14.90
2022-09-07T04:55:47.561Z,14.80
2022-09-07T05:00:49.416Z,14.80
2022-09-07T05:05:51.253Z,14.80
2022-09-07T05:10:54.801Z,14.80
2022-09-07T05:15:56.837Z,14.80
2022-09-07T05:21:11.865Z,14.80
2022-09-07T05:26:13.687Z,14.90
2022-09-07T05:31:19.209Z,14.90
2022-09-07T05:36:23.549Z,14.90
2022-09-07T05:41:26.964Z,15.00
2022-09-07T05:46:28.999Z,15.00
2022-09-07T05:51:30.799Z,15.10
2022-09-07T05:56:35.864Z,15.10
2022-09-07T06:01:37.890Z,15.20
2022-09-07T06:06:39.823Z,15.30
2022-09-07T06:11:41.726Z,15.40
2022-09-07T06:16:43.557Z,15.50
2022-09-07T06:21:45.442Z,15.60
2022-09-07T06:26:47.223Z,15.70
2022-09-07T06:37:10.973Z,15.90
2022-09-07T06:42:12.799Z,16.10
2022-09-07T06:47:18.656Z,16.30
2022-09-07T06:52:20.510Z,16.40
2022-09-07T06:57:22.318Z,16.40
2022-09-07T07:02:24.098Z,16.50
2022-09-07T07:07:25.922Z,16.60
2022-09-07T07:17:31.130Z,16.80
2022-09-07T07:22:48.683Z,17.10
2022-09-07T07:27:50.839Z,17.30
2022-09-07T07:32:53.158Z,17.30
2022-09-07T07:43:17.278Z,17.60
2022-09-07T07:48:19.010Z,17.70
2022-09-07T07:58:46.728Z,18.30
2022-09-07T08:03:49.079Z,18.60
2022-09-07T08:08:50.948Z,18.90
2022-09-07T08:13:53.567Z,18.80
2022-09-07T08:18:55.293Z,18.80
2022-09-07T08:23:57.067Z,19.10
2022-09-07T08:28:58.784Z,19.20
2022-09-07T08:34:00.527Z,19.20
2022-09-07T08:39:02.505Z,19.50
2022-09-07T08:44:32.473Z,19.90
2022-09-07T08:50:01.248Z,20.30
2022-09-07T08:55:54.348Z,20.20
2022-09-07T09:06:53.788Z,20.70
2022-09-07T09:12:19.432Z,21.00
2022-09-07T09:17:35.235Z,21.40
2022-09-07T09:22:37.345Z,21.70
2022-09-07T09:27:39.428Z,21.90
2022-09-07T09:32:43.943Z,21.70
2022-09-07T09:37:45.920Z,21.60
2022-09-07T09:42:48.225Z,21.70
2022-09-07T09:47:52.596Z,21.90
2022-09-07T09:52:55.291Z,22.20
2022-09-07T10:09:11.422Z,22.80
2022-09-07T10:14:35.347Z,22.90
2022-09-07T10:19:39.445Z,23.20
2022-09-07T10:24:41.495Z,23.30
2022-09-07T10:29:43.237Z,23.50
2022-09-07T10:35:14.721Z,23.80
2022-09-07T10:40:25.960Z,24.00
2022-09-07T10:45:35.678Z,24.20
2022-09-07T10:51:12.480Z,24.50
2022-09-07T10:56:25.614Z,24.50
2022-09-07T11:01:31.066Z,25.00
2022-09-07T11:06:38.748Z,25.10
2022-09-07T11:12:01.504Z,25.20
2022-09-07T11:17:16.234Z,24.90
2022-09-07T11:22:42.945Z,25.20
2022-09-07T11:27:52.862Z,25.30
2022-09-07T11:33:07.299Z,25.70
2022-09-07T11:38:53.931Z,26.00
2022-09-07T11:44:13.481Z,26.00
2022-09-07T11:49:22.498Z,26.20
2022-09-07T11:54:33.953Z,26.10
2022-09-07T11:59:57.325Z,26.00
2022-09-07T12:05:19.706Z,26.50
2022-09-07T12:10:32.453Z,26.30
2022-09-07T12:15:46.151Z,26.20
2022-09-07T12:20:48.975Z,26.30
2022-09-07T12:25:52.514Z,26.30
2022-09-07T12:31:04.281Z,26.30
2022-09-07T12:36:38.351Z,26.90
2022-09-07T12:41:43.239Z,27.00
2022-09-07T12:46:48.201Z,27.00
2022-09-07T12:52:16.308Z,26.80
2022-09-07T12:57:39.870Z,26.90
2022-09-07T13:08:40.861Z,26.90
2022-09-07T13:14:08.673Z,27.00
2022-09-07T13:19:45.921Z,26.90
2022-09-07T13:24:52.661Z,26.50
2022-09-07T13:30:01.878Z,26.40
2022-09-07T13:35:06.636Z,26.30
2022-09-07T13:40:10.835Z,26.50
2022-09-07T13:45:54.989Z,26.40
2022-09-07T13:51:18.930Z,26.60
2022-09-07T13:56:31.570Z,26.80
2022-09-07T14:01:33.346Z,27.20
2022-09-07T14:06:39.059Z,28.00
2022-09-07T14:11:48.182Z,27.70
2022-09-07T14:16:52.877Z,27.80
2022-09-07T14:22:00.437Z,26.70
2022-09-07T14:27:03.008Z,26.50
2022-09-07T14:32:16.537Z,26.70
2022-09-07T14:37:21.294Z,26.90
2022-09-07T14:42:24.365Z,26.90
2022-09-07T14:47:33.717Z,26.70
2022-09-07T14:53:33.146Z,26.60
2022-09-07T14:58:10.412Z,26.60
2022-09-07T15:03:35.477Z,26.40
2022-09-07T15:08:40.233Z,26.10
2022-09-07T15:13:45.123Z,25.80
2022-09-07T15:19:02.088Z,26.00
2022-09-07T15:24:04.631Z,26.00
2022-09-07T15:29:08.837Z,25.90
2022-09-07T15:34:11.833Z,25.90
2022-09-07T15:39:22.346Z,26.10
2022-09-07T15:44:26.560Z,26.10
2022-09-07T15:49:29.814Z,26.20
2022-09-07T15:54:35.228Z,26.30
2022-09-07T15:59:38.486Z,26.30
2022-09-07T16:04:40.248Z,26.40
2022-09-07T16:09:42.166Z,26.30
2022-09-07T16:14:44.151Z,26.20
2022-09-07T16:19:46.011Z,25.90
2022-09-07T16:24:48.454Z,25.60
2022-09-07T16:29:51.609Z,25.40
2022-09-07T16:34:53.490Z,25.30
2022-09-07T16:39:56.538Z,25.20
2022-09-07T16:46:02.704Z,25.00
2022-09-07T16:50:19.918Z,24.80
2022-09-07T16:55:21.604Z,24.80
2022-09-07T17:00:23.381Z,24.80
2022-09-07T17:05:25.133Z,24.70
2022-09-07T17:10:28.668Z,24.60
2022-09-07T17:15:34.583Z,24.40
2022-09-07T17:20:36.299Z,24.30
2022-09-07T17:25:38.004Z,24.20
2022-09-07T17:30:39.893Z,24.10
2022-09-07T17:35:41.623Z,24.00
2022-09-07T17:40:43.997Z,23.80
2022-09-07T17:45:45.756Z,23.60
2022-09-07T17:50:47.495Z,23.30
2022-09-07T17:55:49.229Z,23.00
2022-09-07T18:00:51.431Z,22.50
2022-09-07T18:05:54.794Z,22.50
2022-09-07T18:16:30.398Z,22.20
2022-09-07T18:21:34.762Z,22.00
2022-09-07T18:26:40.135Z,21.90
2022-09-07T18:31:41.890Z,21.80
2022-09-07T18:36:43.953Z,21.80
2022-09-07T18:41:45.988Z,21.70
2022-09-07T18:46:47.702Z,21.60
2022-09-07T18:57:15.962Z,21.50
2022-09-07T19:02:19.024Z,21.50
2022-09-07T19:07:21.003Z,21.40
2022-09-07T19:12:24.124Z,21.50
2022-09-07T19:17:26.227Z,21.50
2022-09-07T19:22:28.084Z,21.50
2022-09-07T19:27:32.759Z,21.40
2022-09-07T19:32:34.474Z,21.30
2022-09-07T19:37:36.303Z,21.20
2022-09-07T19:42:38.362Z,21.10
2022-09-07T19:47:40.118Z,21.00
2022-09-07T19:52:42.510Z,21.00
2022-09-07T19:57:47.446Z,20.90
2022-09-07T20:02:50.071Z,20.90
2022-09-07T20:07:51.816Z,20.90
2022-09-07T20:12:53.613Z,20.80
2022-09-07T20:17:55.506Z,20.80
2022-09-07T20:22:57.215Z,20.70
2022-09-07T20:27:58.904Z,20.60
2022-09-07T20:33:00.603Z,20.60
2022-09-07T20:38:02.560Z,20.50
2022-09-07T20:43:04.491Z,20.40
2022-09-07T20:48:06.248Z,20.30
2022-09-07T20:53:08.430Z,20.20
2022-09-07T20:58:10.169Z,20.10
2022-09-07T21:03:12.182Z,20.10
2022-09-07T21:08:14.433Z,20.00
2022-09-07T21:13:16.313Z,20.00
2022-09-07T21:18:18.421Z,19.90
2022-09-07T21:23:20.122Z,20.00
2022-09-07T21:28:22.794Z,19.90
2022-09-07T21:33:25.642Z,19.80
2022-09-07T21:38:27.333Z,19.70
2022-09-07T21:43:29.133Z,19.80
2022-09-07T21:48:31.016Z,19.70
2022-09-07T21:53:33.007Z,19.60
2022-09-07T21:58:34.862Z,19.60
2022-09-07T22:03:36.608Z,19.70
2022-09-07T22:08:39.835Z,19.60
2022-09-07T22:13:42.198Z,19.60
2022-09-07T22:18:45.623Z,19.50
2022-09-07T22:23:50.330Z,19.50
2022-09-07T22:28:52.188Z,19.40
2022-09-07T22:33:54.772Z,19.30
2022-09-07T22:38:58.809Z,19.30
2022-09-07T22:44:00.945Z,19.20
2022-09-07T22:49:02.983Z,19.10
2022-09-07T22:54:05.231Z,19.00
2022-09-07T22:59:08.945Z,19.00
2022-09-07T23:04:11.394Z,18.90
2022-09-07T23:09:18.170Z,18.90
2022-09-07T23:14:24.607Z,18.80
2022-09-07T23:19:26.358Z,18.80
2022-09-07T23:24:28.113Z,18.70
2022-09-07T23:29:29.846Z,18.70
2022-09-07T23:34:31.543Z,18.60
2022-09-07T23:39:33.356Z,18.50
2022-09-07T23:44:35.569Z,18.50
2022-09-07T23:49:37.273Z,18.40
2022-09-07T23:54:38.976Z,18.40
2022-09-07T23:59:40.685Z,18.30
